createdAt,value
2018-08-22T00:00:27.382Z,9.75
2018-08-22T00:02:54.438Z,8.90
2018-08-22T00:05:21.482Z,9.85
2018-08-22T00:07:48.530Z,9.18
2018-08-22T00:10:15.584Z,9.45
2018-08-22T00:12:42.629Z,9.40
2018-08-22T00:15:09.694Z,9.27
2018-08-22T00:17:36.730Z,9.25
2018-08-22T00:20:03.749Z,9.20
2018-08-22T00:22:30.860Z,9.27
2018-08-22T00:24:57.875Z,9.57
2018-08-22T00:27:25.026Z,9.88
2018-08-22T00:29:52.069Z,9.90
2018-08-22T00:32:19.121Z,9.75
2018-08-22T00:35:04.585Z,9.18
2018-08-22T00:37:50.968Z,9.40
2018-08-22T00:40:29.519Z,9.95
2018-08-22T00:42:57.592Z,9.82
2018-08-22T00:45:24.640Z,10.18
2018-08-22T00:47:51.693Z,10.35
2018-08-22T00:50:18.743Z,9.95
2018-08-22T00:52:46.473Z,9.68
2018-08-22T00:55:14.069Z,10.05
2018-08-22T00:57:41.157Z,9.27
2018-08-22T01:00:08.161Z,10.07
2018-08-22T01:02:35.217Z,9.95
2018-08-22T01:05:02.265Z,10.38
2018-08-22T01:07:29.312Z,9.95
2018-08-22T01:09:56.355Z,9.60
2018-08-22T01:12:23.408Z,10.35
2018-08-22T01:14:51.901Z,10.52
2018-08-22T01:17:19.452Z,10.63
2018-08-22T01:19:48.444Z,10.55
2018-08-22T01:22:15.900Z,11.95
2018-08-22T01:24:43.055Z,11.10
2018-08-22T01:27:10.277Z,10.98
2018-08-22T01:29:37.355Z,11.15
2018-08-22T01:32:04.503Z,11.12
2018-08-22T01:34:31.557Z,11.20
2018-08-22T01:36:58.807Z,11.80
2018-08-22T01:39:25.863Z,12.05
2018-08-22T01:41:52.904Z,11.45
2018-08-22T01:44:19.952Z,11.45
2018-08-22T01:46:47.005Z,10.52
2018-08-22T01:49:14.158Z,12.05
2018-08-22T01:51:42.601Z,11.38
2018-08-22T01:54:11.325Z,12.05
2018-08-22T01:56:38.376Z,12.27
2018-08-22T01:59:05.418Z,13.00
2018-08-22T02:01:32.466Z,12.63
2018-08-22T02:03:59.521Z,12.13
2018-08-22T02:06:26.568Z,12.32
2018-08-22T02:08:53.611Z,11.73
2018-08-22T02:11:20.666Z,12.57
2018-08-22T02:13:47.709Z,12.32
2018-08-22T02:16:14.759Z,11.90
2018-08-22T02:18:41.813Z,11.98
2018-08-22T02:21:08.855Z,12.25
2018-08-22T02:23:35.905Z,12.10
2018-08-22T02:26:02.959Z,12.37
2018-08-22T02:28:30.002Z,11.90
2018-08-22T02:30:57.050Z,11.95
2018-08-22T02:33:24.105Z,12.43
2018-08-22T02:35:51.147Z,12.00
2018-08-22T02:38:18.269Z,12.00
2018-08-22T02:40:45.350Z,12.13
2018-08-22T02:43:12.497Z,12.02
2018-08-22T02:45:39.514Z,11.95
2018-08-22T02:48:06.702Z,12.10
2018-08-22T02:50:33.747Z,12.43
2018-08-22T02:53:00.795Z,12.27
2018-08-22T02:55:29.558Z,12.20
2018-08-22T02:57:56.636Z,12.02
2018-08-22T03:00:23.710Z,12.00
2018-08-22T03:02:50.705Z,12.55
2018-08-22T03:05:17.779Z,12.73
2018-08-22T03:07:44.834Z,12.77
2018-08-22T03:10:11.877Z,13.73
2018-08-22T03:12:38.895Z,12.60
2018-08-22T03:15:05.979Z,12.48
2018-08-22T03:17:33.024Z,12.88
2018-08-22T03:20:00.686Z,13.05
2018-08-22T03:22:27.738Z,13.05
2018-08-22T03:24:54.890Z,11.70
2018-08-22T03:27:21.933Z,11.82
2018-08-22T03:29:48.982Z,12.43
2018-08-22T03:32:16.039Z,12.27
2018-08-22T03:34:43.080Z,13.15
2018-08-22T03:37:10.231Z,12.18
2018-08-22T03:39:37.279Z,12.20
2018-08-22T03:42:04.333Z,11.90
2018-08-22T03:44:31.377Z,12.18
2018-08-22T03:46:59.556Z,12.75
2018-08-22T03:49:26.600Z,12.52
2018-08-22T03:51:53.649Z,12.18
2018-08-22T03:54:22.240Z,13.05
2018-08-22T03:56:49.282Z,12.45
2018-08-22T03:59:16.332Z,12.07
2018-08-22T04:01:44.617Z,11.55
2018-08-22T04:04:11.663Z,12.10
2018-08-22T04:06:40.346Z,12.88
2018-08-22T04:09:08.419Z,12.02
2018-08-22T04:11:37.004Z,11.73
2018-08-22T04:14:05.592Z,11.98
2018-08-22T04:16:32.634Z,12.32
2018-08-22T04:18:59.682Z,11.85
2018-08-22T04:21:27.972Z,11.65
2018-08-22T04:23:54.983Z,11.25
2018-08-22T04:26:22.057Z,11.70
2018-08-22T04:28:49.419Z,11.30
2018-08-22T04:31:16.462Z,11.10
2018-08-22T04:33:43.510Z,11.55
2018-08-22T04:36:11.182Z,11.77
2018-08-22T04:38:38.223Z,11.68
2018-08-22T04:41:05.272Z,11.50
2018-08-22T04:43:32.325Z,11.90
2018-08-22T04:45:59.983Z,11.55
2018-08-22T04:48:27.032Z,10.73
2018-08-22T04:51:13.577Z,11.45
2018-08-22T04:53:40.796Z,11.02
2018-08-22T04:56:07.839Z,10.55
2018-08-22T04:58:34.892Z,11.02
2018-08-22T05:01:01.937Z,10.40
2018-08-22T05:03:29.907Z,10.88
2018-08-22T05:05:56.967Z,10.07
2018-08-22T05:08:23.978Z,11.35
2018-08-22T05:10:51.052Z,10.13
2018-08-22T05:13:18.106Z,10.75
2018-08-22T05:15:45.567Z,9.68
2018-08-22T05:18:12.608Z,10.80
2018-08-22T05:20:39.656Z,10.50
2018-08-22T05:23:06.806Z,9.93
2018-08-22T05:25:33.861Z,10.60
2018-08-22T05:28:00.904Z,9.57
2018-08-22T05:30:27.953Z,10.20
2018-08-22T05:32:55.822Z,10.30
2018-08-22T05:35:22.870Z,10.30
2018-08-22T05:37:49.922Z,10.65
2018-08-22T05:40:16.967Z,10.10
2018-08-22T05:42:44.323Z,9.85
2018-08-22T05:45:11.377Z,9.85
2018-08-22T05:47:38.420Z,10.35
2018-08-22T05:50:05.469Z,10.45
2018-08-22T05:52:32.522Z,10.63
2018-08-22T05:55:00.180Z,10.45
2018-08-22T05:57:27.281Z,9.57
2018-08-22T05:59:55.178Z,9.82
2018-08-22T06:02:23.377Z,10.02
2018-08-22T06:04:51.446Z,10.02
2018-08-22T06:07:19.423Z,9.93
2018-08-22T06:10:08.991Z,10.68
2018-08-22T06:12:56.859Z,10.30
2018-08-22T06:15:24.902Z,10.02
2018-08-22T06:17:51.958Z,9.35
2018-08-22T06:20:19.000Z,10.07
2018-08-22T06:22:46.047Z,10.50
2018-08-22T06:25:13.102Z,8.95
2018-08-22T06:27:40.148Z,10.10
2018-08-22T06:30:07.194Z,10.30
2018-08-22T06:32:34.249Z,9.75
2018-08-22T06:35:01.464Z,10.00
2018-08-22T06:37:28.551Z,9.55
2018-08-22T06:39:55.966Z,9.80
2018-08-22T06:42:23.774Z,10.18
2018-08-22T06:44:50.820Z,9.70
2018-08-22T06:47:17.968Z,10.13
2018-08-22T06:49:45.018Z,10.45
2018-08-22T06:52:12.071Z,9.75
2018-08-22T06:54:39.118Z,9.32
2018-08-22T06:57:06.189Z,9.07
2018-08-22T06:59:33.318Z,9.52
2018-08-22T07:02:00.468Z,10.38
2018-08-22T07:04:27.524Z,9.55
2018-08-22T07:06:55.694Z,9.35
2018-08-22T07:09:22.743Z,10.40
2018-08-22T07:11:49.785Z,8.75
2018-08-22T07:14:16.937Z,8.63
2018-08-22T07:16:43.950Z,9.20
2018-08-22T07:19:11.040Z,8.73
2018-08-22T07:21:38.082Z,8.75
2018-08-22T07:24:05.234Z,9.65
2018-08-22T07:26:32.282Z,9.07
2018-08-22T07:28:59.336Z,8.88
2018-08-22T07:31:26.358Z,8.75
2018-08-22T07:33:53.428Z,8.15
2018-08-22T07:36:20.482Z,8.45
2018-08-22T07:38:48.207Z,7.85
2018-08-22T07:41:15.291Z,8.27
2018-08-22T07:43:42.747Z,8.18
2018-08-22T07:46:09.797Z,7.97
2018-08-22T07:49:01.891Z,8.35
2018-08-22T07:51:29.194Z,8.05
2018-08-22T07:53:56.235Z,7.43
2018-08-22T07:56:23.887Z,8.65
2018-08-22T07:58:50.954Z,8.18
2018-08-22T08:01:18.203Z,8.30
2018-08-22T08:03:45.256Z,7.15
2018-08-22T08:06:12.406Z,8.05
2018-08-22T08:08:39.505Z,8.50
2018-08-22T08:11:06.573Z,7.60
2018-08-22T08:13:33.566Z,7.45
2018-08-22T08:16:00.597Z,7.65
2018-08-22T08:18:27.718Z,7.90
2018-08-22T08:20:54.697Z,7.75
2018-08-22T08:23:22.253Z,7.85
2018-08-22T08:25:49.307Z,8.27
2018-08-22T08:28:16.351Z,7.43
2018-08-22T08:30:43.442Z,7.80
2018-08-22T08:33:10.515Z,7.70
2018-08-22T08:35:42.723Z,8.50
2018-08-22T08:38:09.870Z,8.00
2018-08-22T08:40:37.147Z,7.93
2018-08-22T08:43:04.143Z,7.12
2018-08-22T08:45:31.219Z,7.72
2018-08-22T08:47:58.984Z,7.87
2018-08-22T08:50:26.038Z,7.45
2018-08-22T08:52:53.189Z,8.00
2018-08-22T08:55:20.235Z,6.80
2018-08-22T08:57:49.028Z,6.97
2018-08-22T09:00:17.100Z,6.65
2018-08-22T09:02:44.141Z,7.10
2018-08-22T09:05:11.296Z,6.50
2018-08-22T09:07:38.344Z,7.30
2018-08-22T09:10:05.396Z,7.53
2018-08-22T09:12:32.442Z,7.10
2018-08-22T09:14:59.591Z,7.55
2018-08-22T09:17:26.615Z,7.20
2018-08-22T09:19:53.694Z,7.18
2018-08-22T09:22:20.777Z,6.82
2018-08-22T09:24:48.020Z,7.00
2018-08-22T09:27:15.041Z,7.53
2018-08-22T09:29:42.155Z,7.28
2018-08-22T09:32:09.143Z,7.62
2018-08-22T09:34:36.184Z,7.20
2018-08-22T09:37:05.047Z,7.03
2018-08-22T09:39:32.181Z,6.90
2018-08-22T09:41:59.280Z,7.30
2018-08-22T09:44:26.324Z,6.57
2018-08-22T09:46:53.374Z,7.57
2018-08-22T09:49:20.526Z,7.05
2018-08-22T09:51:47.678Z,6.95
2018-08-22T09:54:14.727Z,6.93
2018-08-22T09:56:41.773Z,6.37
2018-08-22T09:59:09.505Z,7.07
2018-08-22T10:01:36.693Z,6.97
2018-08-22T10:04:03.735Z,7.22
2018-08-22T10:06:32.561Z,7.43
2018-08-22T10:08:59.881Z,7.05
2018-08-22T10:11:27.032Z,7.35
2018-08-22T10:13:54.088Z,6.85
2018-08-22T10:16:21.128Z,7.22
2018-08-22T10:18:48.177Z,6.75
2018-08-22T10:21:15.231Z,6.97
2018-08-22T10:23:42.276Z,6.70
2018-08-22T10:26:09.322Z,7.12
2018-08-22T10:28:36.376Z,6.93
2018-08-22T10:31:03.528Z,6.62
2018-08-22T10:33:30.571Z,6.90
2018-08-22T10:35:57.722Z,6.85
2018-08-22T10:38:25.838Z,7.43
2018-08-22T10:40:55.202Z,7.43
2018-08-22T10:43:22.246Z,6.75
2018-08-22T10:45:50.523Z,6.85
2018-08-22T10:48:17.576Z,6.53
2018-08-22T10:50:44.678Z,7.15
2018-08-22T10:53:11.879Z,6.93
2018-08-22T10:55:39.036Z,7.18
2018-08-22T10:58:06.180Z,6.95
2018-08-22T11:00:33.332Z,6.75
2018-08-22T11:03:00.377Z,6.72
2018-08-22T11:05:27.422Z,6.55
2018-08-22T11:07:54.476Z,6.72
2018-08-22T11:10:21.519Z,6.70
2018-08-22T11:12:48.568Z,6.10
2018-08-22T11:15:15.929Z,6.80
2018-08-22T11:17:42.971Z,7.07
2018-08-22T11:20:10.019Z,6.40
2018-08-22T11:22:43.217Z,6.55
2018-08-22T11:25:16.097Z,6.30
2018-08-22T11:27:49.289Z,6.32
2018-08-22T11:30:23.409Z,6.30
2018-08-22T11:32:56.493Z,5.90
2018-08-22T11:35:24.469Z,6.43
2018-08-22T11:37:51.716Z,6.47
2018-08-22T11:40:18.770Z,5.90
2018-08-22T11:42:46.634Z,6.05
2018-08-22T11:45:13.889Z,6.07
2018-08-22T11:47:40.903Z,6.12
2018-08-22T11:50:08.085Z,6.30
2018-08-22T11:52:35.137Z,6.20
2018-08-22T11:55:02.182Z,6.25
2018-08-22T11:57:29.229Z,6.00
2018-08-22T11:59:56.381Z,5.82
2018-08-22T12:02:23.435Z,6.93
2018-08-22T12:04:50.477Z,6.22
2018-08-22T12:07:21.421Z,6.05
2018-08-22T12:09:49.387Z,6.07
2018-08-22T12:12:17.322Z,6.55
2018-08-22T12:14:45.227Z,6.43
2018-08-22T12:17:12.274Z,6.10
2018-08-22T12:19:44.549Z,5.97
2018-08-22T12:22:11.898Z,6.15
2018-08-22T12:24:38.947Z,6.80
2018-08-22T12:27:06.000Z,6.55
2018-08-22T12:29:33.043Z,5.97
2018-08-22T12:32:00.193Z,5.87
2018-08-22T12:34:27.241Z,6.20
2018-08-22T12:36:54.295Z,5.78
2018-08-22T12:39:21.339Z,6.03
2018-08-22T12:41:48.385Z,6.00
2018-08-22T12:44:15.445Z,6.10
2018-08-22T12:46:42.454Z,5.82
2018-08-22T12:49:09.537Z,6.07
2018-08-22T12:51:36.586Z,5.78
2018-08-22T12:54:04.551Z,6.40
2018-08-22T12:56:48.899Z,5.60
2018-08-22T12:59:17.257Z,5.97
2018-08-22T13:01:47.404Z,6.00
2018-08-22T13:04:19.264Z,6.22
2018-08-22T13:06:47.338Z,6.80
2018-08-22T13:09:15.213Z,6.10
2018-08-22T13:11:42.253Z,6.12
2018-08-22T13:14:09.299Z,6.25
2018-08-22T13:16:36.353Z,6.03
2018-08-22T13:19:03.397Z,6.18
2018-08-22T13:21:31.467Z,6.20
2018-08-22T13:23:58.520Z,6.22
2018-08-22T13:26:25.568Z,6.32
2018-08-22T13:28:52.921Z,6.30
2018-08-22T13:31:20.070Z,5.95
2018-08-22T13:33:47.329Z,6.43
2018-08-22T13:36:14.964Z,6.07
2018-08-22T13:38:41.936Z,5.80
2018-08-22T13:41:09.089Z,6.05
2018-08-22T13:43:36.194Z,5.85
2018-08-22T13:46:03.280Z,6.07
2018-08-22T13:48:30.329Z,5.82
2018-08-22T13:50:57.435Z,6.03
2018-08-22T13:53:24.512Z,5.90
2018-08-22T13:55:51.492Z,5.80
2018-08-22T13:58:18.526Z,6.40
2018-08-22T14:00:45.983Z,6.07
2018-08-22T14:03:13.027Z,6.30
2018-08-22T14:05:40.180Z,6.30
2018-08-22T14:08:07.329Z,5.80
2018-08-22T14:10:34.378Z,6.10
2018-08-22T14:13:01.527Z,5.90
2018-08-22T14:15:28.677Z,6.60
2018-08-22T14:17:55.829Z,6.40
2018-08-22T14:20:22.882Z,6.30
2018-08-22T14:22:50.032Z,5.78
2018-08-22T14:25:17.287Z,6.40
2018-08-22T14:27:44.296Z,6.30
2018-08-22T14:30:11.377Z,6.35
2018-08-22T14:32:38.525Z,5.80
2018-08-22T14:35:05.988Z,5.93
2018-08-22T14:37:33.033Z,6.50
2018-08-22T14:40:01.008Z,6.18
2018-08-22T14:42:28.055Z,6.57
2018-08-22T14:44:55.154Z,6.55
2018-08-22T14:47:23.893Z,6.62
2018-08-22T14:49:50.896Z,6.25
2018-08-22T14:52:17.992Z,6.78
2018-08-22T14:54:45.031Z,6.07
2018-08-22T14:57:13.001Z,6.40
2018-08-22T14:59:40.055Z,6.97
2018-08-22T15:02:07.302Z,6.87
2018-08-22T15:04:34.455Z,6.55
2018-08-22T15:07:01.507Z,6.53
2018-08-22T15:09:28.657Z,6.28
2018-08-22T15:11:55.806Z,6.30
2018-08-22T15:14:22.847Z,6.87
2018-08-22T15:16:49.897Z,6.22
2018-08-22T15:19:17.069Z,6.20
2018-08-22T15:21:44.220Z,6.95
2018-08-22T15:24:11.346Z,6.70
2018-08-22T15:26:38.558Z,6.80
2018-08-22T15:29:05.752Z,7.40
2018-08-22T15:31:32.799Z,6.65
2018-08-22T15:34:01.711Z,6.80
2018-08-22T15:36:28.789Z,6.50
2018-08-22T15:38:55.791Z,6.60
2018-08-22T15:41:22.884Z,6.35
2018-08-22T15:43:51.086Z,6.85
2018-08-22T15:46:18.469Z,7.18
2018-08-22T15:48:45.739Z,6.80
2018-08-22T15:51:31.646Z,7.10
2018-08-22T15:53:58.761Z,7.10
2018-08-22T15:56:25.810Z,7.05
2018-08-22T15:58:52.878Z,6.80
2018-08-22T16:01:19.908Z,6.53
2018-08-22T16:03:46.955Z,6.72
2018-08-22T16:06:14.009Z,6.90
2018-08-22T16:08:41.055Z,7.32
2018-08-22T16:11:08.098Z,7.07
2018-08-22T16:13:35.151Z,7.03
2018-08-22T16:16:02.196Z,6.82
2018-08-22T16:18:30.526Z,7.30
2018-08-22T16:20:57.725Z,6.90
2018-08-22T16:23:24.876Z,8.07
2018-08-22T16:25:51.923Z,8.50
2018-08-22T16:28:19.002Z,7.85
2018-08-22T16:30:56.771Z,7.15
2018-08-22T16:33:14.093Z,6.65
2018-08-22T16:35:41.141Z,7.85
2018-08-22T16:38:08.194Z,7.15
2018-08-22T16:40:35.237Z,7.20
2018-08-22T16:43:02.388Z,6.40
2018-08-22T16:45:29.659Z,6.80
2018-08-22T16:47:57.412Z,6.82
2018-08-22T16:50:24.521Z,6.57
2018-08-22T16:52:51.658Z,7.05
2018-08-22T16:55:18.756Z,6.90
2018-08-22T16:57:46.117Z,7.82
2018-08-22T17:00:13.167Z,7.03
2018-08-22T17:02:40.623Z,7.40
2018-08-22T17:05:07.667Z,7.00
2018-08-22T17:07:52.765Z,7.07
2018-08-22T17:10:21.536Z,7.20
2018-08-22T17:12:48.536Z,7.57
2018-08-22T17:15:15.674Z,6.75
2018-08-22T17:17:42.670Z,7.12
2018-08-22T17:20:09.724Z,7.53
2018-08-22T17:22:36.768Z,7.35
2018-08-22T17:25:03.923Z,7.60
2018-08-22T17:27:30.967Z,7.60
2018-08-22T17:29:58.117Z,7.22
2018-08-22T17:32:25.171Z,6.87
2018-08-22T17:34:53.309Z,7.22
2018-08-22T17:37:20.491Z,7.70
2018-08-22T17:39:47.545Z,7.15
2018-08-22T17:42:14.697Z,7.25
2018-08-22T17:44:41.740Z,7.32
2018-08-22T17:47:08.788Z,7.30
2018-08-22T17:49:36.040Z,7.50
2018-08-22T17:52:03.192Z,7.30
2018-08-22T17:54:30.451Z,7.25
2018-08-22T17:56:57.497Z,7.95
2018-08-22T17:59:24.505Z,7.53
2018-08-22T18:01:51.961Z,8.02
2018-08-22T18:04:19.013Z,9.60
2018-08-22T18:06:46.205Z,8.68
2018-08-22T18:09:13.453Z,8.80
2018-08-22T18:11:42.043Z,8.68
2018-08-22T18:14:09.086Z,8.52
2018-08-22T18:16:38.117Z,8.15
2018-08-22T18:19:11.355Z,8.52
2018-08-22T18:21:39.246Z,8.23
2018-08-22T18:24:06.494Z,8.25
2018-08-22T18:26:34.567Z,8.13
2018-08-22T18:29:01.621Z,8.20
2018-08-22T18:31:34.724Z,8.57
2018-08-22T18:34:07.881Z,8.63
2018-08-22T18:36:34.954Z,8.45
2018-08-22T18:39:02.100Z,8.57
2018-08-22T18:41:34.276Z,8.15
2018-08-22T18:44:04.289Z,8.52
2018-08-22T18:47:09.764Z,8.65
2018-08-22T18:52:24.134Z,8.07
2018-08-22T18:54:52.718Z,8.15
2018-08-22T18:57:21.174Z,8.25
2018-08-22T18:59:50.395Z,8.57
2018-08-22T19:02:19.780Z,8.38
2018-08-22T19:04:50.102Z,9.05
2018-08-22T19:07:18.916Z,9.50
2018-08-22T19:10:01.511Z,9.32
2018-08-22T19:12:33.981Z,9.50
2018-08-22T19:15:02.752Z,9.40
2018-08-22T19:17:31.599Z,8.20
2018-08-22T19:19:59.861Z,8.77
2018-08-22T19:22:28.233Z,9.15
2018-08-22T19:25:00.240Z,8.98
2018-08-22T19:27:29.073Z,9.63
2018-08-22T19:30:01.571Z,9.23
2018-08-22T19:32:30.119Z,9.27
2018-08-22T19:35:01.034Z,9.02
2018-08-22T19:37:29.754Z,8.73
2018-08-22T19:40:05.205Z,8.82
2018-08-22T19:42:33.919Z,9.40
2018-08-22T19:45:26.541Z,9.20
2018-08-22T19:47:54.945Z,9.40
2018-08-22T19:53:03.644Z,8.80
2018-08-22T19:55:38.887Z,10.45
2018-08-22T20:07:00.901Z,9.13
2018-08-22T20:23:55.085Z,10.35
2018-08-22T20:29:17.645Z,9.80
2018-08-22T20:34:31.402Z,9.38
2018-08-22T20:36:59.475Z,10.02
2018-08-22T20:39:27.734Z,9.77
2018-08-22T20:41:56.439Z,9.80
2018-08-22T20:44:23.464Z,9.80
2018-08-22T20:46:51.460Z,9.75
2018-08-22T20:49:18.507Z,10.65
2018-08-22T20:51:46.685Z,10.55
2018-08-22T20:54:14.314Z,10.63
2018-08-22T20:56:41.401Z,10.75
2018-08-22T20:59:09.777Z,10.32
2018-08-22T21:01:37.543Z,10.80
2018-08-22T21:04:05.785Z,9.95
2018-08-22T21:06:32.836Z,11.25
2018-08-22T21:09:00.016Z,10.90
2018-08-22T21:11:27.269Z,11.38
2018-08-22T21:14:09.940Z,11.45
2018-08-22T21:16:37.136Z,12.93
2018-08-22T21:19:05.517Z,10.77
2018-08-22T21:21:33.559Z,10.48
2018-08-22T21:24:00.642Z,10.90
2018-08-22T21:26:27.974Z,11.18
2018-08-22T21:28:55.232Z,11.40
2018-08-22T21:31:22.282Z,10.65
2018-08-22T21:33:49.447Z,11.75
2018-08-22T21:36:18.755Z,10.55
2018-08-22T21:38:46.209Z,11.60
2018-08-22T21:41:13.253Z,11.07
2018-08-22T21:43:42.325Z,11.25
2018-08-22T21:46:09.398Z,11.60
2018-08-22T21:48:36.413Z,11.23
2018-08-22T21:51:03.395Z,10.48
2018-08-22T21:53:30.449Z,11.55
2018-08-22T21:55:57.492Z,12.48
2018-08-22T21:58:24.664Z,13.15
2018-08-22T22:00:51.795Z,13.18
2018-08-22T22:03:22.014Z,13.88
2018-08-22T22:05:49.290Z,11.98
2018-08-22T22:08:16.317Z,13.20
2018-08-22T22:10:44.497Z,13.98
2018-08-22T22:13:11.849Z,14.40
2018-08-22T22:15:39.109Z,14.52
2018-08-22T22:18:06.969Z,13.88
2018-08-22T22:20:34.024Z,15.23
2018-08-22T22:23:01.067Z,14.63
2018-08-22T22:25:28.085Z,14.98
2018-08-22T22:27:55.170Z,15.88
2018-08-22T22:30:22.213Z,14.82
2018-08-22T22:32:49.262Z,14.32
2018-08-22T22:35:16.413Z,14.18
2018-08-22T22:37:44.081Z,13.32
2018-08-22T22:40:11.124Z,14.38
2018-08-22T22:42:38.172Z,13.68
2018-08-22T22:45:05.226Z,14.32
2018-08-22T22:47:32.378Z,12.73
2018-08-22T22:49:59.529Z,13.75
2018-08-22T22:52:26.572Z,13.07
2018-08-22T22:54:53.621Z,13.45
2018-08-22T22:57:20.675Z,12.63
2018-08-22T22:59:48.027Z,12.70
2018-08-22T23:02:15.074Z,12.60
2018-08-22T23:04:43.050Z,12.20
2018-08-22T23:07:10.224Z,11.77
2018-08-22T23:09:37.351Z,11.93
2018-08-22T23:12:04.394Z,12.18
2018-08-22T23:14:32.467Z,12.18
2018-08-22T23:17:00.233Z,12.35
2018-08-22T23:19:27.281Z,11.95
2018-08-22T23:21:54.336Z,12.77
2018-08-22T23:24:21.379Z,11.93
2018-08-22T23:26:48.427Z,13.13
2018-08-22T23:29:15.481Z,12.27
2018-08-22T23:31:42.524Z,13.02
2018-08-22T23:34:10.495Z,12.13
2018-08-22T23:36:37.646Z,12.80
2018-08-22T23:39:04.765Z,12.77
2018-08-22T23:41:31.850Z,12.55
2018-08-22T23:43:58.868Z,11.77
2018-08-22T23:46:25.942Z,11.60
2018-08-22T23:48:53.093Z,12.37
2018-08-22T23:51:20.147Z,11.95
2018-08-22T23:53:47.192Z,12.80
2018-08-22T23:56:14.245Z,12.07
2018-08-22T23:58:42.214Z,11.93
